createdAt,value
2023-02-28T00:01:34.852Z,95693.72
2023-02-28T00:04:02.282Z,95696.28
2023-02-28T00:06:29.346Z,95686.06
2023-02-28T00:08:56.467Z,95693.13
2023-02-28T00:11:23.754Z,95687.13
2023-02-28T00:13:50.912Z,95685.28
2023-02-28T00:16:22.250Z,95687.84
2023-02-28T00:18:50.197Z,95679.97
2023-02-28T00:21:19.321Z,95681.72
2023-02-28T00:23:46.450Z,95665.63
2023-02-28T00:26:13.935Z,95682.09
2023-02-28T00:28:44.962Z,95672.09
2023-02-28T00:31:12.057Z,95678.91
2023-02-28T00:33:39.032Z,95675.63
2023-02-28T00:36:10.444Z,95684.19
2023-02-28T00:38:39.546Z,95674.09
2023-02-28T00:41:08.106Z,95673.25
2023-02-28T00:43:37.983Z,95673.25
2023-02-28T00:46:05.556Z,95674.31
2023-02-28T00:48:33.072Z,95666.69
2023-02-28T00:51:00.822Z,95663.16
2023-02-28T00:53:28.188Z,95671.38
2023-02-28T00:55:58.349Z,95659.50
2023-02-28T00:58:26.588Z,95658.78
2023-02-28T01:00:54.727Z,95667.00
2023-02-28T01:03:23.534Z,95657.84
2023-02-28T01:05:50.903Z,95665.50
2023-02-28T01:08:18.231Z,95662.44
2023-02-28T01:10:45.347Z,95665.94
2023-02-28T01:13:13.993Z,95667.59
2023-02-28T01:15:52.067Z,95668.66
2023-02-28T01:18:20.692Z,95667.81
2023-02-28T01:20:48.182Z,95669.47
2023-02-28T01:23:16.803Z,95664.88
2023-02-28T01:25:43.778Z,95660.53
2023-02-28T01:28:10.914Z,95651.50
2023-02-28T01:30:37.935Z,95654.88
2023-02-28T01:33:04.943Z,95649.13
2023-02-28T01:35:36.733Z,95647.81
2023-02-28T01:38:20.579Z,95653.22
2023-02-28T01:40:48.140Z,95649.66
2023-02-28T01:43:44.039Z,95648.38
2023-02-28T01:46:14.653Z,95649.03
2023-02-28T01:48:54.585Z,95648.44
2023-02-28T01:51:35.945Z,95640.66
2023-02-28T01:54:14.459Z,95645.53
2023-02-28T01:56:48.908Z,95649.50
2023-02-28T01:59:28.568Z,95643.25
2023-02-28T02:01:56.452Z,95639.34
2023-02-28T02:04:27.445Z,95635.47
2023-02-28T02:06:55.017Z,95644.56
2023-02-28T02:09:21.926Z,95644.88
2023-02-28T02:11:48.939Z,95643.47
2023-02-28T02:14:44.748Z,95636.38
2023-02-28T02:17:49.604Z,95641.84
2023-02-28T02:21:01.164Z,95649.19
2023-02-28T02:24:43.315Z,95640.56
2023-02-28T02:27:47.018Z,95645.41
2023-02-28T02:30:32.581Z,95645.03
2023-02-28T02:33:17.581Z,95646.16
2023-02-28T02:36:26.690Z,95639.06
2023-02-28T02:39:05.576Z,95646.06
2023-02-28T02:41:47.242Z,95642.97
2023-02-28T02:44:39.802Z,95649.38
2023-02-28T02:47:13.039Z,95639.47
2023-02-28T02:49:46.918Z,95639.91
2023-02-28T02:52:18.690Z,95639.16
2023-02-28T02:54:49.249Z,95633.41
2023-02-28T02:57:35.231Z,95640.31
2023-02-28T03:00:06.157Z,95639.88
2023-02-28T03:02:34.840Z,95642.47
2023-02-28T03:05:09.710Z,95643.72
2023-02-28T03:07:37.709Z,95645.56
2023-02-28T03:10:38.791Z,95648.34
2023-02-28T03:13:47.521Z,95644.41
2023-02-28T03:16:34.804Z,95644.53
2023-02-28T03:19:39.265Z,95640.50
2023-02-28T03:22:34.209Z,95645.94
2023-02-28T03:25:12.886Z,95646.03
2023-02-28T03:28:06.871Z,95642.84
2023-02-28T03:31:17.324Z,95637.06
2023-02-28T03:33:56.069Z,95638.94
2023-02-28T03:36:31.989Z,95633.88
2023-02-28T03:39:08.257Z,95632.31
2023-02-28T03:42:19.465Z,95635.81
2023-02-28T03:44:59.366Z,95622.44
2023-02-28T03:47:34.167Z,95634.69
2023-02-28T03:50:14.054Z,95628.91
2023-02-28T03:52:49.924Z,95637.53
2023-02-28T03:55:18.935Z,95634.25
2023-02-28T03:58:21.642Z,95640.31
2023-02-28T04:00:56.763Z,95644.00
2023-02-28T04:03:24.333Z,95645.75
2023-02-28T04:05:55.642Z,95648.50
2023-02-28T04:08:23.925Z,95641.75
2023-02-28T04:11:05.679Z,95642.66
2023-02-28T04:13:32.642Z,95643.59
2023-02-28T04:15:59.850Z,95653.97
2023-02-28T04:18:26.769Z,95645.53
2023-02-28T04:20:53.803Z,95644.72
2023-02-28T04:23:20.957Z,95649.00
2023-02-28T04:25:48.011Z,95643.97
2023-02-28T04:28:14.940Z,95646.56
2023-02-28T04:30:41.943Z,95648.38
2023-02-28T04:33:08.952Z,95646.03
2023-02-28T04:35:35.971Z,95646.09
2023-02-28T04:38:03.092Z,95646.09
2023-02-28T04:40:30.126Z,95641.06
2023-02-28T04:42:57.151Z,95640.97
2023-02-28T04:45:24.170Z,95648.78
2023-02-28T04:47:51.137Z,95642.09
2023-02-28T04:50:18.164Z,95633.63
2023-02-28T04:52:45.099Z,95628.50
2023-02-28T04:55:12.028Z,95630.25
2023-02-28T04:57:39.021Z,95635.50
2023-02-28T05:00:12.416Z,95636.31
2023-02-28T05:02:40.516Z,95633.09
2023-02-28T05:05:07.766Z,95634.03
2023-02-28T05:07:34.861Z,95630.75
2023-02-28T05:10:01.846Z,95637.63
2023-02-28T05:12:28.985Z,95636.97
2023-02-28T05:14:56.021Z,95627.94
2023-02-28T05:17:22.987Z,95628.94
2023-02-28T05:19:49.921Z,95630.50
2023-02-28T05:22:17.855Z,95642.72
2023-02-28T05:24:45.081Z,95646.38
2023-02-28T05:27:12.280Z,95639.41
2023-02-28T05:29:43.031Z,95626.94
2023-02-28T05:32:13.999Z,95643.06
2023-02-28T05:34:41.892Z,95643.06
2023-02-28T05:37:16.603Z,95638.94
2023-02-28T05:39:44.011Z,95640.72
2023-02-28T05:42:10.894Z,95644.94
2023-02-28T05:44:38.076Z,95643.28
2023-02-28T05:47:05.199Z,95655.00
2023-02-28T05:49:32.262Z,95651.53
2023-02-28T05:51:59.240Z,95654.00
2023-02-28T05:54:26.220Z,95650.50
2023-02-28T05:56:53.220Z,95657.31
2023-02-28T05:59:20.198Z,95655.56
2023-02-28T06:01:51.045Z,95654.63
2023-02-28T06:04:30.969Z,95667.94
2023-02-28T06:06:59.260Z,95661.78
2023-02-28T06:09:26.200Z,95664.06
2023-02-28T06:11:53.190Z,95672.13
2023-02-28T06:14:21.751Z,95674.59
2023-02-28T06:16:48.884Z,95674.94
2023-02-28T06:19:16.433Z,95687.09
2023-02-28T06:21:44.180Z,95685.78
2023-02-28T06:24:11.463Z,95680.25
2023-02-28T06:26:38.396Z,95687.50
2023-02-28T06:29:05.592Z,95686.25
2023-02-28T06:31:33.176Z,95686.69
2023-02-28T06:34:00.448Z,95688.88
2023-02-28T06:36:27.336Z,95685.09
2023-02-28T06:38:55.615Z,95695.09
2023-02-28T06:41:27.959Z,95689.53
2023-02-28T06:43:55.616Z,95697.88
2023-02-28T06:46:23.089Z,95688.22
2023-02-28T06:48:50.630Z,95683.75
2023-02-28T06:51:25.184Z,95689.44
2023-02-28T06:53:52.552Z,95695.31
2023-02-28T06:56:21.346Z,95693.34
2023-02-28T06:58:50.434Z,95692.31
2023-02-28T07:01:18.148Z,95686.75
2023-02-28T07:03:45.423Z,95692.34
2023-02-28T07:06:12.309Z,95687.09
2023-02-28T07:08:41.046Z,95692.75
2023-02-28T07:11:07.946Z,95700.78
2023-02-28T07:13:35.111Z,95692.88
2023-02-28T07:16:09.854Z,95699.44
2023-02-28T07:18:37.854Z,95701.09
2023-02-28T07:21:08.688Z,95707.50
2023-02-28T07:23:36.319Z,95701.19
2023-02-28T07:26:03.403Z,95703.34
2023-02-28T07:28:30.530Z,95706.22
2023-02-28T07:30:57.821Z,95699.00
2023-02-28T07:33:25.000Z,95696.91
2023-02-28T07:35:52.133Z,95705.78
2023-02-28T07:38:19.493Z,95696.78
2023-02-28T07:40:46.464Z,95702.44
2023-02-28T07:43:14.151Z,95696.88
2023-02-28T07:45:41.154Z,95693.94
2023-02-28T07:48:10.918Z,95689.53
2023-02-28T07:50:38.066Z,95691.66
2023-02-28T07:53:05.796Z,95694.72
2023-02-28T07:55:32.752Z,95701.22
2023-02-28T07:58:00.048Z,95701.28
2023-02-28T08:00:27.066Z,95698.31
2023-02-28T08:02:54.247Z,95705.97
2023-02-28T08:05:22.246Z,95706.03
2023-02-28T08:07:50.709Z,95708.88
2023-02-28T08:10:17.967Z,95706.56
2023-02-28T08:12:45.049Z,95713.72
2023-02-28T08:15:12.228Z,95708.81
2023-02-28T08:17:39.249Z,95709.19
2023-02-28T08:20:07.449Z,95706.97
2023-02-28T08:22:34.379Z,95716.97
2023-02-28T08:25:01.440Z,95709.69
2023-02-28T08:27:28.454Z,95716.03
2023-02-28T08:29:55.491Z,95713.13
2023-02-28T08:32:30.685Z,95715.34
2023-02-28T08:34:58.026Z,95707.25
2023-02-28T08:37:25.536Z,95720.78
2023-02-28T08:39:56.134Z,95720.06
2023-02-28T08:42:24.188Z,95732.53
2023-02-28T08:44:51.249Z,95720.19
2023-02-28T08:47:18.272Z,95721.34
2023-02-28T08:49:45.170Z,95727.94
2023-02-28T08:52:12.199Z,95734.28
2023-02-28T08:54:39.336Z,95732.84
2023-02-28T08:57:06.537Z,95738.97
2023-02-28T08:59:33.757Z,95734.13
2023-02-28T09:02:00.852Z,95736.72
2023-02-28T09:04:27.858Z,95738.44
2023-02-28T09:06:54.876Z,95731.25
2023-02-28T09:09:21.778Z,95734.22
2023-02-28T09:11:49.000Z,95738.69
2023-02-28T09:14:18.289Z,95736.03
2023-02-28T09:16:45.412Z,95735.59
2023-02-28T09:19:13.589Z,95738.72
2023-02-28T09:21:41.037Z,95750.41
2023-02-28T09:24:08.750Z,95745.72
2023-02-28T09:26:42.983Z,95748.81
2023-02-28T09:29:18.637Z,95746.00
2023-02-28T09:31:46.202Z,95739.38
2023-02-28T09:34:13.170Z,95745.69
2023-02-28T09:36:45.590Z,95740.28
2023-02-28T09:39:16.274Z,95748.09
2023-02-28T09:41:51.078Z,95735.94
2023-02-28T09:44:38.960Z,95737.59
2023-02-28T09:47:31.706Z,95744.44
2023-02-28T09:50:17.420Z,95742.97
2023-02-28T09:52:49.526Z,95745.16
2023-02-28T09:55:16.948Z,95757.63
2023-02-28T09:57:44.236Z,95750.22
2023-02-28T10:00:26.333Z,95749.28
2023-02-28T10:03:38.821Z,95746.94
2023-02-28T10:06:21.286Z,95749.28
2023-02-28T10:09:20.112Z,95752.41
2023-02-28T10:14:27.624Z,95748.31
2023-02-28T10:17:22.382Z,95746.81
2023-02-28T10:20:15.220Z,95737.06
2023-02-28T10:23:15.785Z,95741.44
2023-02-28T10:25:51.245Z,95746.78
2023-02-28T10:28:21.540Z,95746.91
2023-02-28T10:30:54.581Z,95740.56
2023-02-28T10:33:36.405Z,95743.94
2023-02-28T10:36:04.701Z,95738.06
2023-02-28T10:38:40.582Z,95745.72
2023-02-28T10:41:17.702Z,95735.53
2023-02-28T10:43:48.287Z,95732.06
2023-02-28T10:46:27.251Z,95733.13
2023-02-28T10:49:07.334Z,95732.25
2023-02-28T10:51:42.186Z,95729.38
2023-02-28T10:54:24.496Z,95718.78
2023-02-28T10:57:27.115Z,95715.81
2023-02-28T11:00:14.359Z,95710.66
2023-02-28T11:02:43.919Z,95721.75
2023-02-28T11:05:31.440Z,95722.28
2023-02-28T11:08:13.667Z,95718.75
2023-02-28T11:10:40.949Z,95724.41
2023-02-28T11:13:07.910Z,95714.00
2023-02-28T11:15:36.014Z,95725.06
2023-02-28T11:18:48.145Z,95715.06
2023-02-28T11:21:41.145Z,95713.69
2023-02-28T11:24:35.105Z,95710.50
2023-02-28T11:27:02.821Z,95716.50
2023-02-28T11:29:33.500Z,95719.16
2023-02-28T11:32:31.463Z,95705.81
2023-02-28T11:35:23.396Z,95713.25
2023-02-28T11:37:50.360Z,95700.31
2023-02-28T11:40:31.455Z,95702.53
2023-02-28T11:43:07.939Z,95706.56
2023-02-28T11:45:51.647Z,95694.47
2023-02-28T11:49:08.083Z,95699.09
2023-02-28T11:51:48.123Z,95692.59
2023-02-28T11:54:49.118Z,95686.38
2023-02-28T11:57:45.672Z,95695.66
2023-02-28T12:00:24.149Z,95692.53
2023-02-28T12:03:31.116Z,95688.28
2023-02-28T12:06:21.716Z,95692.22
2023-02-28T12:08:48.970Z,95697.44
2023-02-28T12:12:05.678Z,95682.09
2023-02-28T12:15:14.143Z,95694.13
2023-02-28T12:18:14.055Z,95692.31
2023-02-28T12:20:47.602Z,95692.19
2023-02-28T12:23:42.323Z,95686.03
2023-02-28T12:26:41.207Z,95685.53
2023-02-28T12:29:24.809Z,95677.63
2023-02-28T12:32:01.661Z,95674.38
2023-02-28T12:34:39.624Z,95674.50
2023-02-28T12:37:17.064Z,95671.75
2023-02-28T12:39:51.152Z,95679.13
2023-02-28T12:42:31.364Z,95669.50
2023-02-28T12:45:04.222Z,95673.59
2023-02-28T12:47:31.183Z,95679.50
2023-02-28T12:50:08.070Z,95674.41
2023-02-28T12:52:46.586Z,95678.03
2023-02-28T12:55:42.318Z,95680.13
2023-02-28T12:58:34.953Z,95680.91
2023-02-28T13:01:26.706Z,95677.78
2023-02-28T13:04:27.667Z,95676.28
2023-02-28T13:07:43.808Z,95682.31
2023-02-28T13:10:11.797Z,95674.66
2023-02-28T13:12:50.607Z,95683.59
2023-02-28T13:15:29.508Z,95681.75
2023-02-28T13:18:00.296Z,95688.22
2023-02-28T13:20:49.296Z,95684.13
2023-02-28T13:23:58.105Z,95681.00
2023-02-28T13:26:37.176Z,95685.41
2023-02-28T13:29:16.843Z,95679.34
2023-02-28T13:32:09.225Z,95683.31
2023-02-28T13:34:38.379Z,95685.25
2023-02-28T13:37:26.324Z,95689.50
2023-02-28T13:40:11.036Z,95680.34
2023-02-28T13:42:50.599Z,95683.63
2023-02-28T13:45:30.840Z,95674.38
2023-02-28T13:48:03.241Z,95674.59
2023-02-28T13:50:38.711Z,95673.34
2023-02-28T13:53:14.772Z,95675.09
2023-02-28T13:56:11.944Z,95672.50
2023-02-28T13:59:23.798Z,95676.38
2023-02-28T14:02:07.896Z,95679.44
2023-02-28T14:04:59.432Z,95685.78
2023-02-28T14:07:36.255Z,95677.75
2023-02-28T14:10:09.406Z,95674.47
2023-02-28T14:12:59.055Z,95679.84
2023-02-28T14:15:42.067Z,95678.34
2023-02-28T14:18:30.465Z,95676.19
2023-02-28T14:21:29.965Z,95672.09
2023-02-28T14:24:02.375Z,95675.34
2023-02-28T14:26:58.373Z,95669.31
2023-02-28T14:29:35.479Z,95675.06
2023-02-28T14:32:42.910Z,95678.19
2023-02-28T14:35:52.304Z,95673.25
2023-02-28T14:38:25.570Z,95677.34
2023-02-28T14:40:55.848Z,95674.91
2023-02-28T14:43:29.348Z,95677.66
2023-02-28T14:46:04.252Z,95684.00
2023-02-28T14:48:31.769Z,95666.19
2023-02-28T14:51:01.345Z,95672.69
2023-02-28T14:53:37.434Z,95680.50
2023-02-28T14:56:04.847Z,95675.28
2023-02-28T14:58:35.381Z,95681.16
2023-02-28T15:01:04.840Z,95680.19
2023-02-28T15:03:40.531Z,95676.25
2023-02-28T15:06:16.623Z,95677.81
2023-02-28T15:08:43.817Z,95673.19
2023-02-28T15:11:20.289Z,95674.88
2023-02-28T15:13:58.106Z,95684.28
2023-02-28T15:16:42.421Z,95684.31
2023-02-28T15:19:26.314Z,95681.31
2023-02-28T15:22:01.585Z,95677.66
2023-02-28T15:24:50.983Z,95685.25
2023-02-28T15:27:29.011Z,95683.50
2023-02-28T15:30:00.093Z,95683.50
2023-02-28T15:32:32.907Z,95682.38
2023-02-28T15:35:19.213Z,95685.44
2023-02-28T15:37:55.356Z,95686.84
2023-02-28T15:40:31.590Z,95682.34
2023-02-28T15:43:13.114Z,95687.03
2023-02-28T15:45:52.249Z,95688.25
2023-02-28T15:48:46.193Z,95687.84
2023-02-28T15:51:13.117Z,95686.38
2023-02-28T15:53:55.702Z,95688.44
2023-02-28T15:56:37.744Z,95688.03
2023-02-28T15:59:08.077Z,95686.66
2023-02-28T16:01:39.819Z,95688.72
2023-02-28T16:04:19.199Z,95686.56
2023-02-28T16:06:59.231Z,95684.38
2023-02-28T16:09:28.119Z,95684.63
2023-02-28T16:11:58.034Z,95688.34
2023-02-28T16:14:31.654Z,95689.72
2023-02-28T16:17:06.589Z,95687.41
2023-02-28T16:19:34.704Z,95685.22
2023-02-28T16:22:02.333Z,95689.88
2023-02-28T16:24:29.448Z,95689.31
2023-02-28T16:26:58.082Z,95682.91
2023-02-28T16:29:31.023Z,95694.13
2023-02-28T16:31:58.246Z,95693.72
2023-02-28T16:34:25.622Z,95682.63
2023-02-28T16:36:53.665Z,95686.03
2023-02-28T16:39:23.719Z,95696.03
2023-02-28T16:41:52.169Z,95691.38
2023-02-28T16:44:29.760Z,95700.97
2023-02-28T16:46:57.193Z,95707.91
2023-02-28T16:49:24.240Z,95702.44
2023-02-28T16:51:51.234Z,95708.56
2023-02-28T16:54:18.520Z,95709.63
2023-02-28T16:56:48.242Z,95712.28
2023-02-28T16:59:20.908Z,95710.75
2023-02-28T17:01:47.879Z,95718.88
2023-02-28T17:04:16.669Z,95721.41
2023-02-28T17:06:43.693Z,95722.22
2023-02-28T17:09:41.293Z,95726.78
2023-02-28T17:12:10.086Z,95727.78
2023-02-28T17:14:37.061Z,95721.00
2023-02-28T17:17:06.806Z,95732.00
2023-02-28T17:19:35.182Z,95722.28
2023-02-28T17:22:02.099Z,95723.00
2023-02-28T17:24:31.341Z,95734.00
2023-02-28T17:26:58.764Z,95737.19
2023-02-28T17:29:25.977Z,95744.63
2023-02-28T17:31:53.054Z,95748.53
2023-02-28T17:34:20.701Z,95740.66
2023-02-28T17:36:51.293Z,95746.47
2023-02-28T17:39:26.244Z,95752.94
2023-02-28T17:41:56.800Z,95752.63
2023-02-28T17:44:25.879Z,95748.97
2023-02-28T17:46:55.046Z,95752.84
2023-02-28T17:49:22.661Z,95747.09
2023-02-28T17:51:50.031Z,95752.75
2023-02-28T17:54:18.340Z,95743.94
2023-02-28T17:56:46.232Z,95752.84
2023-02-28T17:59:13.814Z,95745.56
2023-02-28T18:01:40.914Z,95746.03
2023-02-28T18:04:08.087Z,95754.16
2023-02-28T18:06:48.558Z,95754.41
2023-02-28T18:09:24.180Z,95753.22
2023-02-28T18:11:53.440Z,95759.66
2023-02-28T18:14:24.361Z,95760.00
2023-02-28T18:16:53.876Z,95757.78
2023-02-28T18:19:21.105Z,95759.66
2023-02-28T18:21:51.863Z,95760.91
2023-02-28T18:24:21.545Z,95751.97
2023-02-28T18:26:48.540Z,95758.19
2023-02-28T18:29:25.709Z,95749.03
2023-02-28T18:31:54.759Z,95754.41
2023-02-28T18:34:23.636Z,95750.44
2023-02-28T18:36:53.056Z,95753.22
2023-02-28T18:39:20.077Z,95751.81
2023-02-28T18:41:47.123Z,95751.22
2023-02-28T18:44:20.303Z,95748.75
2023-02-28T18:46:49.877Z,95749.22
2023-02-28T18:49:17.999Z,95746.84
2023-02-28T18:51:46.481Z,95753.78
2023-02-28T18:54:15.358Z,95753.28
2023-02-28T18:56:42.843Z,95755.28
2023-02-28T18:59:10.986Z,95755.28
2023-02-28T19:01:38.475Z,95753.00
2023-02-28T19:04:06.626Z,95748.19
2023-02-28T19:06:34.840Z,95752.41
2023-02-28T19:09:03.872Z,95753.47
2023-02-28T19:11:32.515Z,95755.44
2023-02-28T19:13:59.652Z,95752.94
2023-02-28T19:16:27.797Z,95750.72
2023-02-28T19:18:55.929Z,95751.66
2023-02-28T19:21:24.737Z,95753.50
2023-02-28T19:23:51.770Z,95757.03
2023-02-28T19:26:23.001Z,95750.44
2023-02-28T19:28:50.436Z,95752.31
2023-02-28T19:31:24.640Z,95746.31
2023-02-28T19:33:52.985Z,95744.19
2023-02-28T19:36:20.992Z,95747.81
2023-02-28T19:38:48.496Z,95749.56
2023-02-28T19:41:17.301Z,95756.00
2023-02-28T19:43:44.854Z,95757.72
2023-02-28T19:46:13.310Z,95752.06
2023-02-28T19:48:42.468Z,95755.69
2023-02-28T19:51:12.567Z,95747.47
2023-02-28T19:53:41.881Z,95747.56
2023-02-28T19:56:10.010Z,95750.13
2023-02-28T19:58:37.972Z,95750.56
2023-02-28T20:01:15.541Z,95745.63
2023-02-28T20:03:42.761Z,95752.66
2023-02-28T20:06:15.406Z,95752.78
2023-02-28T20:08:43.122Z,95754.00
2023-02-28T20:11:13.271Z,95756.69
2023-02-28T20:13:40.564Z,95756.91
2023-02-28T20:16:10.576Z,95753.72
2023-02-28T20:18:44.155Z,95755.38
2023-02-28T20:21:13.414Z,95760.84
2023-02-28T20:23:43.097Z,95743.69
2023-02-28T20:26:11.684Z,95749.81
2023-02-28T20:28:39.942Z,95749.09
2023-02-28T20:31:19.303Z,95745.78
2023-02-28T20:33:47.869Z,95746.72
2023-02-28T20:36:16.075Z,95745.16
2023-02-28T20:38:43.876Z,95748.69
2023-02-28T20:41:11.609Z,95745.47
2023-02-28T20:43:40.416Z,95749.09
2023-02-28T20:46:07.450Z,95750.25
2023-02-28T20:48:38.326Z,95756.31
2023-02-28T20:51:06.063Z,95759.03
2023-02-28T20:53:35.395Z,95749.81
2023-02-28T20:56:18.596Z,95754.97
2023-02-28T20:58:48.256Z,95752.41
2023-02-28T21:01:25.865Z,95746.56
2023-02-28T21:03:56.011Z,95750.06
2023-02-28T21:06:28.437Z,95755.31
2023-02-28T21:08:56.753Z,95754.59
2023-02-28T21:11:30.670Z,95753.97
2023-02-28T21:14:04.464Z,95754.88
2023-02-28T21:16:32.215Z,95754.16
2023-02-28T21:19:05.650Z,95754.28
2023-02-28T21:21:43.859Z,95752.72
2023-02-28T21:24:18.043Z,95744.28
2023-02-28T21:26:45.893Z,95757.16
2023-02-28T21:29:14.142Z,95747.19
2023-02-28T21:31:41.260Z,95757.50
2023-02-28T21:34:10.812Z,95753.88
2023-02-28T21:36:41.519Z,95752.34
2023-02-28T21:39:20.372Z,95748.91
2023-02-28T21:41:47.725Z,95748.72
2023-02-28T21:44:23.806Z,95749.75
2023-02-28T21:46:54.968Z,95751.59
2023-02-28T21:49:22.413Z,95744.59
2023-02-28T21:51:49.435Z,95746.56
2023-02-28T21:54:16.526Z,95742.31
2023-02-28T21:56:43.459Z,95748.28
2023-02-28T21:59:10.883Z,95750.06
2023-02-28T22:01:41.036Z,95746.63
2023-02-28T22:04:12.260Z,95751.09
2023-02-28T22:06:41.302Z,95749.31
2023-02-28T22:09:10.216Z,95753.66
2023-02-28T22:11:38.616Z,95753.75
2023-02-28T22:14:06.963Z,95755.50
2023-02-28T22:16:49.666Z,95754.69
2023-02-28T22:19:18.306Z,95759.00
2023-02-28T22:21:46.849Z,95754.16
2023-02-28T22:24:14.625Z,95762.63
2023-02-28T22:26:41.906Z,95745.81
2023-02-28T22:29:10.506Z,95748.38
2023-02-28T22:31:37.456Z,95747.75
2023-02-28T22:34:08.583Z,95734.19
2023-02-28T22:36:36.329Z,95740.38
2023-02-28T22:39:04.742Z,95738.09
2023-02-28T22:41:32.265Z,95742.41
2023-02-28T22:44:03.991Z,95750.13
2023-02-28T22:46:33.942Z,95745.19
2023-02-28T22:49:05.697Z,95743.53
2023-02-28T22:51:32.960Z,95733.34
2023-02-28T22:53:59.998Z,95745.06
2023-02-28T22:56:29.870Z,95740.78
2023-02-28T22:58:59.288Z,95743.13
2023-02-28T23:01:29.819Z,95744.66
2023-02-28T23:03:57.776Z,95744.66
2023-02-28T23:06:27.190Z,95743.03
2023-02-28T23:08:58.757Z,95745.59
2023-02-28T23:11:30.628Z,95751.59
2023-02-28T23:13:58.622Z,95754.16
2023-02-28T23:16:41.379Z,95761.78
2023-02-28T23:19:23.114Z,95752.50
2023-02-28T23:21:50.893Z,95751.66
2023-02-28T23:24:21.177Z,95751.59
2023-02-28T23:26:51.981Z,95754.97
2023-02-28T23:29:21.502Z,95757.56
2023-02-28T23:31:50.267Z,95754.16
2023-02-28T23:34:24.794Z,95753.31
2023-02-28T23:36:53.309Z,95749.09
2023-02-28T23:39:21.751Z,95753.44
2023-02-28T23:41:49.026Z,95747.53
2023-02-28T23:44:17.200Z,95748.50
2023-02-28T23:46:47.014Z,95741.69
2023-02-28T23:49:16.128Z,95750.34
2023-02-28T23:51:43.169Z,95739.53
2023-02-28T23:54:10.118Z,95739.53
2023-02-28T23:56:37.205Z,95737.97
2023-02-28T23:59:05.166Z,95739.72
